createdAt,value
2023-11-30T00:04:47.859Z,100089.59
2023-11-30T00:09:49.928Z,100378.06
2023-11-30T00:14:54.682Z,100307.84
2023-11-30T00:19:59.621Z,100202.63
2023-11-30T00:25:01.980Z,100332.84
2023-11-30T00:30:04.437Z,100349.03
2023-11-30T00:35:07.072Z,100384.94
2023-11-30T00:40:09.879Z,100418.56
2023-11-30T00:45:12.125Z,100369.88
2023-11-30T00:50:14.047Z,100496.69
2023-11-30T00:55:16.001Z,100501.25
2023-11-30T01:00:18.303Z,100353.19
2023-11-30T01:05:20.326Z,100363.47
2023-11-30T01:10:22.428Z,100509.88
2023-11-30T01:15:24.471Z,100435.38
2023-11-30T01:20:26.441Z,100526.28
2023-11-30T01:25:28.381Z,100332.31
2023-11-30T01:30:30.397Z,100333.06
2023-11-30T01:35:32.599Z,100366.22
2023-11-30T01:40:34.475Z,100517.69
2023-11-30T01:45:39.055Z,100436.66
2023-11-30T01:50:41.554Z,100520.56
2023-11-30T01:55:43.535Z,100447.50
2023-11-30T02:00:46.077Z,100486.47
2023-11-30T02:05:52.704Z,100513.84
2023-11-30T02:10:54.857Z,100481.63
2023-11-30T02:15:56.731Z,100503.31
2023-11-30T02:21:01.567Z,100479.28
2023-11-30T02:26:03.352Z,100510.03
2023-11-30T02:31:07.846Z,100471.31
2023-11-30T02:36:13.843Z,100500.22
2023-11-30T02:41:18.251Z,100491.72
2023-11-30T02:46:22.686Z,100461.59
2023-11-30T02:51:24.765Z,100450.88
2023-11-30T02:56:26.699Z,100468.56
2023-11-30T03:01:28.594Z,100477.22
2023-11-30T03:06:30.487Z,100478.97
2023-11-30T03:11:32.452Z,100525.06
2023-11-30T03:16:34.306Z,100500.41
2023-11-30T03:21:36.257Z,100480.69
2023-11-30T03:26:38.228Z,100492.56
2023-11-30T03:31:42.825Z,100493.56
2023-11-30T03:36:47.200Z,100486.31
2023-11-30T03:41:49.104Z,100487.44
2023-11-30T03:46:50.947Z,100449.75
2023-11-30T03:51:54.963Z,100490.13
2023-11-30T03:56:57.096Z,100482.03
2023-11-30T04:01:59.108Z,100521.78
2023-11-30T04:07:00.930Z,100512.84
2023-11-30T04:12:02.853Z,100422.50
2023-11-30T04:17:05.023Z,100538.63
2023-11-30T04:22:09.590Z,100521.84
2023-11-30T04:27:11.742Z,100479.34
2023-11-30T04:32:13.700Z,100522.72
2023-11-30T04:37:15.324Z,100541.75
2023-11-30T04:42:17.544Z,100537.16
2023-11-30T04:47:19.622Z,100511.13
2023-11-30T04:52:23.605Z,100540.31
2023-11-30T04:57:25.640Z,100512.91
2023-11-30T05:02:27.528Z,100541.47
2023-11-30T05:07:29.525Z,100530.88
2023-11-30T05:12:31.373Z,100549.69
2023-11-30T05:17:34.246Z,100507.31
2023-11-30T05:22:36.101Z,100512.38
2023-11-30T05:27:37.936Z,100546.81
2023-11-30T05:32:42.547Z,100564.50
2023-11-30T05:37:46.874Z,100554.13
2023-11-30T05:42:49.096Z,100534.66
2023-11-30T05:47:53.923Z,100528.94
2023-11-30T05:52:55.755Z,100563.97
2023-11-30T05:57:57.915Z,100534.28
2023-11-30T06:02:59.844Z,100563.78
2023-11-30T06:08:04.201Z,100568.72
2023-11-30T06:13:08.593Z,100532.25
2023-11-30T06:18:10.576Z,100530.81
2023-11-30T06:23:12.412Z,100560.00
2023-11-30T06:28:14.212Z,100539.09
2023-11-30T06:33:16.177Z,100516.50
2023-11-30T06:38:18.373Z,100567.44
2023-11-30T06:43:20.347Z,100544.72
2023-11-30T06:48:24.783Z,100562.16
2023-11-30T06:53:26.802Z,100552.91
2023-11-30T06:58:30.758Z,100524.19
2023-11-30T07:03:42.524Z,100543.16
2023-11-30T07:08:47.828Z,100551.63
2023-11-30T07:13:49.642Z,100582.72
2023-11-30T07:18:53.134Z,100607.69
2023-11-30T07:23:56.000Z,100572.41
2023-11-30T07:28:57.905Z,100581.00
2023-11-30T07:34:00.177Z,100593.44
2023-11-30T07:39:02.233Z,100603.88
2023-11-30T07:44:06.708Z,100598.66
2023-11-30T07:49:08.718Z,100639.72
2023-11-30T07:54:10.687Z,100587.25
2023-11-30T07:59:14.003Z,100600.97
2023-11-30T08:04:16.324Z,100641.53
2023-11-30T08:09:18.321Z,100631.13
2023-11-30T08:33:02.853Z,100605.66
2023-11-30T08:38:05.770Z,100595.31
2023-11-30T08:43:07.645Z,100708.28
2023-11-30T08:48:11.782Z,100695.59
2023-11-30T08:53:13.817Z,100647.94
2023-11-30T08:58:15.840Z,100551.19
2023-11-30T09:03:20.734Z,100723.69
2023-11-30T09:08:22.966Z,100377.72
2023-11-30T09:13:25.098Z,100533.72
2023-11-30T09:18:27.151Z,100506.31
2023-11-30T09:23:31.033Z,100746.38
2023-11-30T09:28:33.408Z,100719.53
2023-11-30T09:33:35.347Z,100606.22
2023-11-30T09:38:37.370Z,100629.31
2023-11-30T09:43:39.350Z,100549.50
2023-11-30T09:48:43.987Z,100646.75
2023-11-30T09:53:48.219Z,100664.41
2023-11-30T09:58:50.041Z,100638.53
2023-11-30T10:03:53.007Z,100540.84
2023-11-30T10:09:03.362Z,100583.50
2023-11-30T10:14:05.419Z,100531.75
2023-11-30T10:19:08.760Z,100748.63
2023-11-30T10:24:11.380Z,100661.41
2023-11-30T10:29:18.380Z,100686.09
2023-11-30T10:34:28.841Z,100533.28
2023-11-30T10:39:39.820Z,100564.66
2023-11-30T10:44:45.626Z,100674.28
2023-11-30T10:49:50.383Z,100749.56
2023-11-30T10:55:10.593Z,100670.13
2023-11-30T11:00:18.255Z,100773.88
2023-11-30T11:05:22.256Z,100701.47
2023-11-30T11:10:28.813Z,100557.25
2023-11-30T11:15:34.140Z,100646.13
2023-11-30T11:20:38.193Z,100412.56
2023-11-30T11:25:40.863Z,100782.03
2023-11-30T11:30:49.122Z,100503.78
2023-11-30T11:35:51.629Z,100393.81
2023-11-30T11:40:55.343Z,100593.84
2023-11-30T11:45:57.752Z,100612.75
2023-11-30T11:51:00.545Z,100415.81
2023-11-30T11:56:04.619Z,100576.97
2023-11-30T12:01:07.042Z,100634.88
2023-11-30T12:06:12.644Z,100658.53
2023-11-30T12:11:14.788Z,100782.25
2023-11-30T12:16:16.912Z,100631.09
2023-11-30T12:21:22.858Z,100644.41
2023-11-30T12:26:24.804Z,100675.94
2023-11-30T12:31:27.237Z,100610.53
2023-11-30T12:36:29.317Z,100776.66
2023-11-30T12:41:31.914Z,100694.84
2023-11-30T12:46:36.153Z,100684.59
2023-11-30T12:51:40.695Z,100655.72
2023-11-30T12:56:48.133Z,100686.75
2023-11-30T13:01:52.873Z,100599.44
2023-11-30T13:06:55.659Z,100595.97
2023-11-30T13:12:00.074Z,100439.06
2023-11-30T13:17:02.491Z,100367.44
2023-11-30T13:22:06.235Z,100546.88
2023-11-30T13:27:08.673Z,100405.88
2023-11-30T13:37:13.401Z,100660.06
2023-11-30T13:42:17.760Z,100607.94
2023-11-30T13:47:21.143Z,100695.56
2023-11-30T13:52:25.874Z,100679.34
2023-11-30T13:57:28.105Z,100605.88
2023-11-30T14:02:30.225Z,100638.66
2023-11-30T14:07:34.584Z,100720.44
2023-11-30T14:12:37.265Z,100662.50
2023-11-30T14:17:40.127Z,100743.09
2023-11-30T14:22:42.542Z,100715.84
2023-11-30T14:27:45.497Z,100627.41
2023-11-30T14:32:55.013Z,100668.69
2023-11-30T14:37:57.039Z,100662.50
2023-11-30T14:43:01.294Z,100666.06
2023-11-30T14:48:03.470Z,100658.81
2023-11-30T14:53:12.179Z,100617.69
2023-11-30T14:58:14.811Z,100602.94
2023-11-30T15:03:19.970Z,100461.22
2023-11-30T15:08:22.362Z,100659.28
2023-11-30T15:13:25.866Z,100594.56
2023-11-30T15:18:28.888Z,100701.97
2023-11-30T15:23:31.668Z,100615.13
2023-11-30T15:28:33.892Z,100523.81
2023-11-30T15:33:36.546Z,100675.56
2023-11-30T15:38:40.582Z,100622.41
2023-11-30T15:43:55.055Z,100728.91
2023-11-30T15:48:57.346Z,100721.28
2023-11-30T15:53:59.551Z,100665.78
2023-11-30T15:59:02.064Z,100776.22
2023-11-30T16:04:04.569Z,100679.56
2023-11-30T16:09:07.330Z,100538.91
2023-11-30T16:14:11.184Z,100648.25
2023-11-30T16:19:13.283Z,100797.25
2023-11-30T16:24:17.857Z,100581.94
2023-11-30T16:35:23.735Z,100558.81
2023-11-30T16:40:25.794Z,100536.50
2023-11-30T16:45:28.983Z,100564.97
2023-11-30T16:50:31.630Z,100546.88
2023-11-30T16:55:38.509Z,100659.53
2023-11-30T17:00:40.684Z,100607.75
2023-11-30T17:05:42.733Z,100844.91
2023-11-30T17:10:46.354Z,100778.56
2023-11-30T17:15:49.118Z,100424.13
2023-11-30T17:20:53.101Z,100871.28
2023-11-30T17:25:55.033Z,100853.03
2023-11-30T17:30:59.292Z,100886.38
2023-11-30T17:36:01.352Z,100880.66
2023-11-30T17:41:03.235Z,100896.06
2023-11-30T17:46:09.676Z,100850.28
2023-11-30T17:51:18.817Z,100895.69
2023-11-30T17:56:21.507Z,100870.25
2023-11-30T18:01:25.900Z,100909.16
2023-11-30T18:06:33.533Z,100898.31
2023-11-30T18:11:35.555Z,100861.00
2023-11-30T18:16:37.790Z,100903.22
2023-11-30T18:21:39.739Z,100915.88
2023-11-30T18:26:43.755Z,100905.84
2023-11-30T18:31:45.602Z,100922.56
2023-11-30T18:36:47.778Z,100875.94
2023-11-30T18:41:52.433Z,100882.03
2023-11-30T18:46:56.906Z,100905.34
2023-11-30T18:51:58.854Z,100868.97
2023-11-30T18:57:01.602Z,100930.41
2023-11-30T19:02:07.123Z,100914.09
2023-11-30T20:08:52.600Z,100722.75
2023-11-30T20:31:17.795Z,100874.66
2023-11-30T20:36:20.001Z,100605.88
2023-11-30T20:41:22.550Z,100650.50
2023-11-30T20:46:24.550Z,100861.41
2023-11-30T20:51:28.962Z,100920.22
2023-11-30T20:56:30.788Z,100912.75
2023-11-30T21:01:32.849Z,100937.03
2023-11-30T21:06:38.107Z,100850.78
2023-11-30T21:11:40.093Z,100898.34
2023-11-30T21:16:41.950Z,100940.50
2023-11-30T21:32:38.051Z,100904.16
2023-11-30T21:37:39.888Z,100944.50
2023-11-30T21:42:42.029Z,100874.19
2023-11-30T21:47:43.949Z,100930.81
2023-11-30T21:52:48.175Z,100954.84
2023-11-30T21:57:57.214Z,100929.00
2023-11-30T22:03:00.390Z,100898.94
2023-11-30T22:08:02.583Z,100928.44
2023-11-30T22:13:04.550Z,100917.31
2023-11-30T22:18:06.479Z,100938.38
2023-11-30T22:23:08.224Z,100954.56
2023-11-30T22:28:10.125Z,100899.31
2023-11-30T22:33:12.097Z,100933.53
2023-11-30T22:38:14.013Z,100965.41
2023-11-30T22:43:15.930Z,100891.81
2023-11-30T22:48:17.766Z,100974.44
2023-11-30T22:53:19.606Z,100937.09
2023-11-30T22:58:21.463Z,100972.63
2023-11-30T23:03:23.969Z,100958.59
2023-11-30T23:08:28.254Z,100932.47
2023-11-30T23:13:30.080Z,100956.75
2023-11-30T23:18:31.951Z,100971.03
2023-11-30T23:23:33.953Z,100969.31
2023-11-30T23:28:36.011Z,100917.09
2023-11-30T23:33:38.029Z,100961.63
2023-11-30T23:38:39.989Z,100958.22
2023-11-30T23:43:41.848Z,100960.72
2023-11-30T23:48:43.848Z,100961.63
2023-11-30T23:53:47.882Z,100934.16
2023-11-30T23:58:49.781Z,100954.34
